Doksany, Czech Republic

11:41 AM CEST on September 15, 2014 (GMT +0200)
Ovocnarstvi Ploskovice, Petrasek | Change Station
CLOSE
Current Station
Personal Weather Station
Location: Ploskovice, Litomerice
Elevation: 810 ft
Nearby Weather Stations

Elev 810 ft 50.56 °N, 14.20 °E | Updated 1 minute ago

Mostly Cloudy
Mostly Cloudy
69.4 °F
Feels Like 69.4 °F
N
0.0
Wind Variable Wind from North
Gusts 0.0 mph

Today
High -- | Low -- °F
--% Chance of Precip.
Yesterday
High -- | Low -- °F
Precip. -- in
6:38 AM 7:17 PM
Waning Gibbous, 57% visible
Pressure 30.09 in
Visibility 6.2 miles
Clouds Mostly Cloudy 1300 ft
Dew Point 64 °F
Humidity 84%
Rainfall 0.04 in
Snow Depth Not available.
UV 3 out of 12
Pollen Not available.
Air Quality Not available.
Flu Activity Not available.
METAR LKPR 150930Z 01003KT 350V100 9999 BKN013 19/16 Q1019 BECMG SCT015

More Conditions Fewer Conditions

Pressure 30.09 in
Visibility 6.2 miles
Clouds Mostly Cloudy 1300 ft
Dew Point 64 °F
Humidity 84%
Rainfall 0.04 in
Snow Depth Not available.
UV 3 out of 12
Pollen Not available.
Air Quality Not available.
Flu Activity Not available.
METAR LKPR 150930Z 01003KT 350V100 9999 BKN013 19/16 Q1019 BECMG SCT015

More Conditions Fewer Conditions

10-Day Weather Forecast

Almanac

Astronomy

Sep. 15, 2014 Rise Set
Actual Time 6:38 AM CEST 7:17 PM CEST
Civil Twilight 6:05 AM CEST 7:50 PM CEST
Nautical Twilight 5:26 AM CEST 8:29 PM CEST
Astronomical Twilight 4:44 AM CEST 9:10 PM CEST
Moon 11:09 PM CEST 2:00 PM CEST
Length of Visible Light 13h 44m
Length of Day
12h 39m
Tomorrow will be 3m 46s shorter.
Waning Gibbous, 57% of the Moon is Illuminated
Today
Waning Gibbous
Sep 15
Last Quarter
Sep 24
New
Oct 1
First Quarter
Oct 8
Full

Yesterday's Extremes

Country Highs Country Lows

Community

WunderPhotos

Upload Photos

1,753,427 photos uploaded!

Nearby

Snow Depth

Not available.

Earthquake Activity

City Distance Mag. Time & Date
No recent earthquake activity has been reported nearby.
Minimum magnitude displayed is 2.5.

Coastal Water Temperatures

Place Temperature
No Stations Reporting

Nearby Weather Stations